Terminal Aerodrome Forecast
Issued by NWS

Home | Current Version | Previous Version | Text Only | Print | Product List | Glossary On
Versions: 1 2 3 4 5 6 7 8 9 10 11 12 13
423
FTUS44 KLZK 242022 AAA
TAFBPK
TAF AMD
KBPK 242022Z 2420/2518 VRB03KT P6SM VCTS SCT050CB BKN150
     FM250300 33005KT P6SM VCTS SCT025CB BKN050
     FM250600 VRB04KT P6SM BKN250
     FM251400 33005KT P6SM SCT030 OVC060 PROB30 2514/2518 4SM TSRA
      BR BKN030CB=

USA.gov is the U.S. government's official web portal to all federal, state and local government web resources and services.